Time;durP1;ratioP1;P1;durP2;ratioP2;P2;SDS_P1;SDS_P2;PMS_P1;PMS_P2;Temp;Humidity;BMP_temperature;BMP_pressure;BME280_temperature;BME280_humidity;BME280_pressure;Samples;Min_cycle;Max_cycle;Signal;HPM_P1;HPM_P2
2021/05/23 00:01:20;;;;;;;3.30;3.00;;;;;;;10.55;75.04;100061.91;5038313;28;20585;-67
2021/05/23 00:03:46;;;;;;;3.47;2.90;;;;;;;10.56;74.71;100068.06;5034942;28;20209;-67
2021/05/23 00:06:12;;;;;;;3.10;2.90;;;;;;;10.56;75.09;100068.94;5031879;28;20228;-67
2021/05/23 00:08:39;;;;;;;3.10;2.83;;;;;;;10.56;75.44;100062.75;5034303;28;20304;-68
2021/05/23 00:11:07;;;;;;;3.83;2.90;;;;;;;10.56;75.09;100063.59;5033917;28;20202;-68
2021/05/23 00:13:38;;;;;;;4.20;2.53;;;;;;;10.57;75.42;100061.78;5034741;28;20216;-67
2021/05/23 00:16:07;;;;;;;2.73;2.53;;;;;;;10.58;74.94;100069.63;5033293;28;20199;-67
2021/05/23 00:18:35;;;;;;;2.83;2.63;;;;;;;10.60;75.25;100066.88;5032462;28;20249;-67
2021/05/23 00:21:02;;;;;;;2.50;2.30;;;;;;;10.61;75.04;100068.56;5031539;28;20263;-67
2021/05/23 00:23:28;;;;;;;3.10;2.77;;;;;;;10.62;75.18;100072.94;5034570;28;20220;-67
2021/05/23 00:25:54;;;;;;;2.67;2.47;;;;;;;10.63;75.26;100071.97;5032661;28;20226;-67
2021/05/23 00:28:21;;;;;;;3.10;2.80;;;;;;;10.63;75.28;100071.97;5033204;28;20230;-68
2021/05/23 00:30:48;;;;;;;2.93;2.60;;;;;;;10.65;74.94;100070.06;5032687;28;20271;-67
2021/05/23 00:33:15;;;;;;;2.97;2.57;;;;;;;10.64;75.33;100074.53;5035983;28;20217;-67
2021/05/23 00:35:41;;;;;;;2.90;2.57;;;;;;;10.63;75.17;100067.50;5044699;28;20221;-67
2021/05/23 00:38:09;;;;;;;5.27;2.80;;;;;;;10.63;74.77;100067.50;5049765;28;20229;-68
2021/05/23 00:40:36;;;;;;;3.10;2.53;;;;;;;10.64;74.95;100068.34;5049136;28;20205;-68
2021/05/23 00:43:03;;;;;;;3.37;2.23;;;;;;;10.65;75.17;100075.38;5049263;28;20198;-68
2021/05/23 00:45:29;;;;;;;2.67;2.47;;;;;;;10.64;75.21;100077.19;5049838;28;20229;-68
2021/05/23 00:47:55;;;;;;;2.37;2.17;;;;;;;10.63;74.84;100072.81;5049267;28;20217;-67
2021/05/23 00:50:24;;;;;;;2.60;2.40;;;;;;;10.63;74.55;100072.81;5048746;28;20280;-67
2021/05/23 00:52:52;;;;;;;3.40;2.30;;;;;;;10.63;74.90;100077.31;5044674;28;20209;-65
2021/05/23 00:55:19;;;;;;;2.43;2.23;;;;;;;10.65;75.03;100070.06;5050071;28;20564;-68
2021/05/23 00:57:45;;;;;;;2.97;2.77;;;;;;;10.64;74.70;100063.88;5050188;28;20294;-66
2021/05/23 01:00:12;;;;;;;2.73;2.53;;;;;;;10.65;75.03;100070.91;5049752;28;20705;-67
2021/05/23 01:02:44;;;;;;;2.93;2.27;;;;;;;10.66;75.37;100069.09;5049561;28;20573;-66
2021/05/23 01:05:15;;;;;;;2.63;2.43;;;;;;;10.66;75.18;100066.44;5047434;28;20702;-66
2021/05/23 01:07:42;;;;;;;2.50;2.30;;;;;;;10.65;74.96;100076.22;5049063;28;20225;-67
2021/05/23 01:10:10;;;;;;;3.03;2.30;;;;;;;10.66;75.18;100071.75;5045077;28;20209;-67
2021/05/23 01:13:30;;;;;;;2.70;2.50;;;;;;;10.65;75.19;100070.06;5048933;28;20210;-67
2021/05/23 01:15:56;;;;;;;2.33;2.13;;;;;;;10.64;75.08;100073.69;5043186;28;20448;-67
2021/05/23 01:18:28;;;;;;;2.40;2.20;;;;;;;10.63;74.80;100069.31;5049309;28;20249;-67
2021/05/23 01:20:57;;;;;;;2.60;2.40;;;;;;;10.62;75.14;100072.94;5049844;28;20206;-66
2021/05/23 01:23:30;;;;;;;4.07;2.10;;;;;;;10.61;75.21;100080.06;5048789;28;20212;-67
2021/05/23 01:26:04;;;;;;;3.33;2.00;;;;;;;10.62;75.16;100080.91;5049717;28;20227;-67
2021/05/23 01:28:33;;;;;;;2.90;2.53;;;;;;;10.61;74.84;100074.75;5049802;28;20256;-66
2021/05/23 01:30:59;;;;;;;2.93;2.63;;;;;;;10.62;75.54;100075.59;5049671;28;20202;-67
2021/05/23 01:33:25;;;;;;;3.10;2.80;;;;;;;10.62;75.09;100078.25;5049047;28;20204;-66
2021/05/23 01:35:57;;;;;;;4.07;2.80;;;;;;;10.62;75.36;100078.25;5050076;28;20201;-67
2021/05/23 01:38:24;;;;;;;3.87;2.40;;;;;;;10.61;75.26;100077.41;5049656;28;20221;-67
2021/05/23 01:40:52;;;;;;;3.27;2.63;;;;;;;10.61;75.39;100080.06;5045341;28;20569;-65
2021/05/23 01:43:19;;;;;;;3.10;2.80;;;;;;;10.61;75.28;100080.06;5044913;28;20256;-66
2021/05/23 01:45:46;;;;;;;3.17;2.60;;;;;;;10.62;75.06;100075.59;5049331;28;20228;-66
2021/05/23 01:48:12;;;;;;;3.00;2.70;;;;;;;10.63;75.58;100077.31;5051357;28;20221;-67
2021/05/23 01:50:39;;;;;;;3.53;2.90;;;;;;;10.64;75.66;100077.19;5051904;28;20220;-66
2021/05/23 01:53:07;;;;;;;3.37;2.30;;;;;;;10.64;75.73;100082.50;5052325;28;20201;-66
2021/05/23 01:55:34;;;;;;;3.23;2.80;;;;;;;10.64;75.54;100074.53;5052963;28;20205;-66
2021/05/23 01:58:00;;;;;;;3.03;2.63;;;;;;;10.64;75.57;100076.34;5052933;28;20738;-67
2021/05/23 02:00:33;;;;;;;5.17;3.03;;;;;;;10.65;75.84;100081.56;5052911;28;20205;-66
2021/05/23 02:03:00;;;;;;;3.03;2.73;;;;;;;10.64;75.97;100071.88;5052164;28;20721;-66
2021/05/23 02:05:26;;;;;;;5.10;2.53;;;;;;;10.65;76.09;100073.56;5047327;28;20230;-66
2021/05/23 02:07:53;;;;;;;4.80;2.80;;;;;;;10.66;76.40;100071.75;5053406;28;20221;-67
2021/05/23 02:10:20;;;;;;;3.30;3.00;;;;;;;10.65;76.43;100070.06;5051718;28;20212;-66
2021/05/23 02:12:46;;;;;;;3.83;2.93;;;;;;;10.64;76.54;100069.19;5050094;28;20677;-66
2021/05/23 02:15:15;;;;;;;3.10;2.63;;;;;;;10.65;76.63;100073.56;5052209;28;20687;-67
2021/05/23 02:17:44;;;;;;;3.37;2.60;;;;;;;10.66;76.75;100069.09;5054010;28;20639;-67
2021/05/23 02:20:14;;;;;;;2.50;2.30;;;;;;;10.66;76.62;100066.44;5052903;28;20214;-67
2021/05/23 02:22:42;;;;;;;2.53;1.97;;;;;;;10.63;76.29;100067.50;5049252;28;20214;-67
2021/05/23 02:25:09;;;;;;;3.47;2.03;;;;;;;10.62;76.77;100065.78;5046766;28;20225;-66
2021/05/23 02:27:37;;;;;;;3.13;2.10;;;;;;;10.62;76.31;100065.78;5049307;28;20233;-67
2021/05/23 02:30:06;;;;;;;2.93;2.03;;;;;;;10.62;76.32;100067.59;5052681;28;20209;-66
2021/05/23 02:32:33;;;;;;;2.83;2.17;;;;;;;10.60;76.72;100073.03;5039666;28;20575;-67
2021/05/23 02:34:59;;;;;;;3.57;2.23;;;;;;;10.60;76.51;100072.19;5047350;28;20209;-66
2021/05/23 02:37:26;;;;;;;4.97;2.70;;;;;;;10.60;76.38;100064.19;5050390;28;20327;-66
2021/05/23 02:39:52;;;;;;;2.67;2.47;;;;;;;10.61;76.06;100073.91;5052467;28;20255;-67
2021/05/23 02:42:18;;;;;;;5.87;2.80;;;;;;;10.61;76.17;100068.56;5051775;28;20237;-66
2021/05/23 02:44:44;;;;;;;3.30;2.27;;;;;;;10.61;76.39;100076.56;5048180;28;20244;-67
2021/05/23 02:47:10;;;;;;;2.37;2.17;;;;;;;10.62;76.41;100070.28;5052125;28;20205;-66
2021/05/23 02:49:41;;;;;;;3.47;2.33;;;;;;;10.62;76.19;100075.59;5051323;28;20263;-67
2021/05/23 02:52:08;;;;;;;2.93;2.63;;;;;;;10.62;76.18;100071.13;5051001;28;20212;-67
2021/05/23 02:54:34;;;;;;;3.20;2.47;;;;;;;10.65;76.67;100075.38;5052057;28;20266;-67
2021/05/23 02:57:00;;;;;;;2.77;2.57;;;;;;;10.65;76.28;100070.91;5051809;28;20703;-67
2021/05/23 02:59:26;;;;;;;3.27;2.83;;;;;;;10.64;76.32;100071.00;5050364;28;20198;-67
2021/05/23 03:01:52;;;;;;;3.47;2.60;;;;;;;10.63;76.38;100075.50;5051605;28;20288;-67
2021/05/23 03:04:18;;;;;;;2.70;2.20;;;;;;;10.63;76.52;100080.81;5051796;28;20206;-67
2021/05/23 03:06:44;;;;;;;3.20;2.33;;;;;;;10.62;76.02;100081.78;5050924;28;20221;-67
2021/05/23 03:09:11;;;;;;;3.07;1.90;;;;;;;10.62;75.91;100086.25;5052131;28;20229;-67
2021/05/23 03:11:37;;;;;;;2.90;1.80;;;;;;;10.60;76.24;100089.03;5050445;28;20210;-66
2021/05/23 03:14:03;;;;;;;2.77;1.50;;;;;;;10.58;76.28;100090.94;5051992;28;20750;-67
2021/05/23 03:16:29;;;;;;;1.93;1.43;;;;;;;10.55;76.02;100095.66;5051346;28;20206;-68
2021/05/23 03:18:55;;;;;;;2.50;1.33;;;;;;;10.51;75.48;100103.00;5051706;28;20234;-67
2021/05/23 03:21:22;;;;;;;3.07;1.50;;;;;;;10.49;76.03;100106.75;5051572;28;20206;-68
2021/05/23 03:23:48;;;;;;;1.97;1.40;;;;;;;10.47;75.25;100113.97;5050282;28;20209;-67
2021/05/23 03:26:14;;;;;;;2.93;1.73;;;;;;;10.46;75.28;100122.94;5052298;28;20225;-67
2021/05/23 03:28:40;;;;;;;2.87;1.80;;;;;;;10.44;75.89;100120.38;5050994;28;20235;-67
2021/05/23 03:31:06;;;;;;;2.30;1.93;;;;;;;10.43;76.11;100127.50;5051409;28;20578;-67
2021/05/23 03:33:32;;;;;;;2.37;2.10;;;;;;;10.41;75.79;100132.09;5050291;28;20213;-67
2021/05/23 03:35:58;;;;;;;2.30;2.17;;;;;;;10.39;75.75;100123.34;5052110;28;20205;-67
2021/05/23 03:38:24;;;;;;;2.37;2.10;;;;;;;10.37;76.09;100135.09;5050442;28;20221;-67
2021/05/23 03:40:51;;;;;;;2.67;2.43;;;;;;;10.35;76.58;100140.53;5051267;28;20692;-67
2021/05/23 03:43:17;;;;;;;3.27;2.73;;;;;;;10.33;76.54;100142.44;5049924;28;20232;-67
2021/05/23 03:45:44;;;;;;;5.27;3.37;;;;;;;10.31;76.63;100141.69;5050537;28;20226;-67
2021/05/23 03:48:10;;;;;;;3.17;2.90;;;;;;;10.30;76.88;100140.00;5050928;28;20598;-67
2021/05/23 03:50:36;;;;;;;3.67;3.03;;;;;;;10.28;76.98;100144.56;5049768;28;20210;-67
2021/05/23 03:53:03;;;;;;;3.13;2.87;;;;;;;10.28;77.11;100157.88;5050216;28;20733;-67
2021/05/23 03:55:29;;;;;;;3.60;3.00;;;;;;;10.27;77.44;100156.16;5051134;28;20679;-67
2021/05/23 03:57:56;;;;;;;3.60;3.17;;;;;;;10.27;77.55;100166.81;5050692;28;20226;-67
2021/05/23 04:00:24;;;;;;;3.27;2.97;;;;;;;10.28;77.17;100165.84;5050360;28;20198;-67
2021/05/23 04:02:52;;;;;;;3.33;3.03;;;;;;;10.30;78.06;100163.94;5044734;28;20209;-67
2021/05/23 04:05:19;;;;;;;3.57;3.20;;;;;;;10.30;77.78;100160.44;5046076;28;20531;-67
2021/05/23 04:07:45;;;;;;;3.20;2.90;;;;;;;10.31;78.13;100168.31;5051081;28;20715;-67
2021/05/23 04:10:14;;;;;;;3.43;3.13;;;;;;;10.33;77.72;100174.38;5049805;28;20296;-67
2021/05/23 04:12:42;;;;;;;4.23;2.93;;;;;;;10.34;77.84;100176.09;5050171;28;20217;-67
2021/05/23 04:15:10;;;;;;;2.83;2.63;;;;;;;10.36;78.25;100176.84;5050642;28;20221;-67
2021/05/23 04:17:37;;;;;;;2.90;2.70;;;;;;;10.37;78.07;100173.22;5050350;28;20237;-67
2021/05/23 04:20:05;;;;;;;3.33;2.40;;;;;;;10.40;78.19;100177.44;5049706;28;20198;-67
2021/05/23 04:22:31;;;;;;;2.50;2.23;;;;;;;10.39;78.39;100184.56;5042809;28;20630;-67
2021/05/23 04:24:57;;;;;;;2.40;2.20;;;;;;;10.39;77.99;100186.41;5049356;28;20221;-67
2021/05/23 04:27:23;;;;;;;2.70;2.10;;;;;;;10.37;78.41;100181.19;5039966;28;20230;-67
2021/05/23 04:29:49;;;;;;;2.50;2.30;;;;;;;10.35;77.77;100185.78;5041215;28;20197;-67
2021/05/23 04:32:15;;;;;;;2.70;2.50;;;;;;;10.35;78.24;100196.44;5047957;28;20205;-67
2021/05/23 04:34:42;;;;;;;2.83;2.50;;;;;;;10.35;78.23;100201.75;5049861;28;20618;-67
2021/05/23 04:37:08;;;;;;;3.07;2.77;;;;;;;10.35;77.99;100203.56;5049588;28;20667;-67
2021/05/23 04:39:34;;;;;;;3.30;2.80;;;;;;;10.35;78.20;100204.41;5050053;28;20254;-67
2021/05/23 04:42:00;;;;;;;2.93;2.53;;;;;;;10.35;77.81;100199.09;5042489;28;20208;-67
2021/05/23 04:44:26;;;;;;;3.27;2.80;;;;;;;10.35;78.15;100203.56;5050424;28;20205;-67
2021/05/23 04:46:53;;;;;;;3.03;2.50;;;;;;;10.35;77.89;100216.88;5049526;28;20225;-67
2021/05/23 04:49:19;;;;;;;3.20;2.90;;;;;;;10.35;77.66;100212.41;5049404;28;20232;-66
2021/05/23 04:51:45;;;;;;;2.93;2.73;;;;;;;10.35;78.00;100219.53;5048608;28;20637;-66
2021/05/23 04:54:12;;;;;;;3.87;3.10;;;;;;;10.34;78.46;100218.69;5049746;28;20578;-67
2021/05/23 04:56:38;;;;;;;3.40;3.10;;;;;;;10.35;78.05;100233.69;5049950;28;20201;-67
2021/05/23 04:59:04;;;;;;;3.40;3.10;;;;;;;10.36;78.32;100235.41;5050006;28;20703;-67
2021/05/23 05:01:30;;;;;;;3.97;3.67;;;;;;;10.38;78.44;100237.94;5049224;28;21592;-67
2021/05/23 05:03:56;;;;;;;5.93;5.03;;;;;;;10.39;78.18;100242.31;5049899;28;20204;-68
2021/05/23 05:06:22;;;;;;;3.43;2.93;;;;;;;10.40;78.24;100244.00;5048644;28;20240;-68
2021/05/23 05:08:49;;;;;;;13.17;9.23;;;;;;;10.41;78.59;100241.22;5042881;28;20217;-68
2021/05/23 05:11:15;;;;;;;12.03;7.80;;;;;;;10.42;78.72;100240.28;5048146;28;20596;-67
2021/05/23 05:13:41;;;;;;;9.27;6.03;;;;;;;10.43;78.97;100255.28;5046482;28;20279;-67
2021/05/23 05:16:08;;;;;;;7.50;5.53;;;;;;;10.45;78.58;100268.50;5046554;28;20201;-67
2021/05/23 05:18:35;;;;;;;5.37;4.50;;;;;;;10.49;78.68;100271.81;5049549;28;20233;-68
2021/05/23 05:21:01;;;;;;;4.03;3.63;;;;;;;10.48;79.12;100268.28;5049807;28;20209;-68
2021/05/23 05:23:27;;;;;;;4.73;3.93;;;;;;;10.50;78.98;100276.19;5050142;28;20198;-67
2021/05/23 05:25:54;;;;;;;4.10;3.70;;;;;;;10.49;78.86;100277.13;5050180;28;20228;-68
2021/05/23 05:28:20;;;;;;;5.43;4.93;;;;;;;10.49;79.18;100274.47;5053091;28;20217;-68
2021/05/23 05:30:46;;;;;;;4.63;4.17;;;;;;;10.48;78.66;100280.75;5050617;28;20209;-67
2021/05/23 05:33:12;;;;;;;6.73;4.97;;;;;;;10.44;78.88;100282.78;5052813;28;20197;-67
2021/05/23 05:35:38;;;;;;;8.30;5.40;;;;;;;10.39;78.42;100285.72;5053090;28;20201;-67
2021/05/23 05:38:04;;;;;;;9.37;7.70;;;;;;;10.36;78.74;100285.97;5053332;28;20221;-68
2021/05/23 05:40:30;;;;;;;6.37;5.50;;;;;;;10.35;78.26;100291.41;5052878;28;20694;-68
2021/05/23 05:42:57;;;;;;;5.87;5.27;;;;;;;10.32;78.33;100289.78;5051879;28;20675;-67
2021/05/23 05:45:23;;;;;;;5.17;4.67;;;;;;;10.31;78.86;100293.41;5043527;28;20223;-68
2021/05/23 05:47:49;;;;;;;5.63;5.13;;;;;;;10.31;78.84;100297.88;5042161;28;20217;-67
2021/05/23 05:50:15;;;;;;;5.80;5.30;;;;;;;10.29;79.11;100297.13;5038101;28;20207;-68
2021/05/23 05:52:41;;;;;;;5.47;4.60;;;;;;;10.29;79.19;100305.97;5051322;28;20667;-67
2021/05/23 05:55:08;;;;;;;6.87;4.77;;;;;;;10.31;78.72;100295.22;5052986;28;20204;-69
2021/05/23 05:57:34;;;;;;;4.67;4.27;;;;;;;10.29;78.92;100302.44;5043508;28;20228;-68
2021/05/23 06:00:01;;;;;;;10.50;6.83;;;;;;;10.27;79.04;100307.03;5038038;28;20205;-68
2021/05/23 06:02:27;;;;;;;6.73;5.53;;;;;;;10.25;79.00;100312.44;5034308;28;20202;-68
2021/05/23 06:04:53;;;;;;;5.10;4.60;;;;;;;10.25;79.21;100315.09;5035899;28;20210;-69
2021/05/23 06:07:19;;;;;;;7.50;6.30;;;;;;;10.27;79.70;100304.34;5033330;28;20603;-68
2021/05/23 06:09:45;;;;;;;7.17;5.90;;;;;;;10.28;79.30;100312.25;5034514;28;20233;-67
2021/05/23 06:12:12;;;;;;;7.17;5.33;;;;;;;10.28;79.47;100316.72;5040885;28;20222;-67
2021/05/23 06:14:38;;;;;;;6.17;5.23;;;;;;;10.27;79.48;100325.66;5042496;28;20947;-68
2021/05/23 06:17:05;;;;;;;4.60;4.20;;;;;;;10.30;79.55;100322.78;5037582;28;20205;-67
2021/05/23 06:19:31;;;;;;;5.60;4.93;;;;;;;10.29;79.30;100327.25;5041023;28;20224;-67
2021/05/23 06:21:57;;;;;;;6.63;5.20;;;;;;;10.30;79.67;100328.97;5040070;28;20213;-67
2021/05/23 06:24:23;;;;;;;7.47;6.13;;;;;;;10.31;79.53;100328.00;5036123;28;20198;-67
2021/05/23 06:26:49;;;;;;;4.33;3.93;;;;;;;10.33;79.42;100331.44;5038986;28;20251;-67
2021/05/23 06:29:15;;;;;;;7.30;6.47;;;;;;;10.34;80.04;100341.13;5040777;28;20279;-66
2021/05/23 06:31:41;;;;;;;6.70;4.57;;;;;;;10.36;79.84;100344.53;5041305;28;20213;-67
2021/05/23 06:34:08;;;;;;;5.17;4.67;;;;;;;10.39;79.69;100346.97;5043431;28;20201;-66
2021/05/23 06:36:36;;;;;;;7.30;5.70;;;;;;;10.42;79.55;100352.09;5047488;28;20221;-66
2021/05/23 06:39:03;;;;;;;11.17;7.73;;;;;;;10.45;80.23;100351.03;5044073;28;21271;-66
2021/05/23 06:41:29;;;;;;;6.63;5.57;;;;;;;10.49;79.47;100352.53;5042095;28;20286;-67
2021/05/23 06:43:55;;;;;;;6.97;4.80;;;;;;;10.50;79.99;100354.25;5043064;28;20202;-66
2021/05/23 06:46:21;;;;;;;4.27;3.87;;;;;;;10.52;79.77;100368.31;5046535;28;20717;-67
2021/05/23 06:48:47;;;;;;;10.47;7.53;;;;;;;10.55;80.15;100370.78;5037019;28;20687;-66
2021/05/23 06:51:14;;;;;;;5.10;4.37;;;;;;;10.58;79.79;100372.34;5043696;28;20203;-67
2021/05/23 06:53:41;;;;;;;7.63;4.80;;;;;;;10.60;80.15;100368.63;5039312;28;20259;-66
2021/05/23 06:56:07;;;;;;;7.60;5.90;;;;;;;10.64;79.81;100371.94;5043079;28;20193;-66
2021/05/23 06:58:33;;;;;;;6.60;4.40;;;;;;;10.66;79.92;100381.53;5043186;28;20226;-66
2021/05/23 07:01:00;;;;;;;4.63;4.23;;;;;;;10.70;79.81;100382.19;5041636;28;20304;-67
2021/05/23 07:03:26;;;;;;;5.03;4.03;;;;;;;10.75;80.33;100380.03;5041502;28;20212;-66
2021/05/23 07:05:52;;;;;;;6.57;5.20;;;;;;;10.81;80.19;100376.97;5035372;28;20229;-66
2021/05/23 07:08:19;;;;;;;5.83;4.77;;;;;;;10.85;80.16;100383.81;5035256;28;20593;-66
2021/05/23 07:10:46;;;;;;;5.87;4.13;;;;;;;10.90;80.23;100384.34;5037843;28;20239;-65
2021/05/23 07:13:12;;;;;;;5.00;4.00;;;;;;;10.95;79.54;100387.53;5036286;28;20210;-66
2021/05/23 07:15:38;;;;;;;4.80;4.33;;;;;;;10.96;79.66;100378.56;5039799;28;20580;-65
2021/05/23 07:18:05;;;;;;;4.77;3.83;;;;;;;11.02;79.70;100388.81;5039980;28;20234;-66
2021/05/23 07:20:31;;;;;;;4.30;3.90;;;;;;;11.08;79.71;100393.75;5039830;28;20297;-66
2021/05/23 07:22:57;;;;;;;4.53;3.43;;;;;;;11.12;79.84;100383.69;5037550;28;20201;-66
2021/05/23 07:25:24;;;;;;;4.83;3.73;;;;;;;11.16;79.55;100398.50;5037915;28;20218;-66
2021/05/23 07:27:50;;;;;;;5.87;4.13;;;;;;;11.22;79.36;100398.09;5038478;28;20222;-66
2021/05/23 07:30:17;;;;;;;5.63;3.27;;;;;;;11.26;78.93;100402.25;5034987;28;20228;-67
2021/05/23 07:32:43;;;;;;;6.03;4.73;;;;;;;11.26;78.78;100404.94;5037995;28;20206;-67
2021/05/23 07:35:10;;;;;;;8.00;5.77;;;;;;;11.30;78.53;100402.88;5037656;28;20206;-67
2021/05/23 07:37:37;;;;;;;5.73;4.53;;;;;;;11.33;78.24;100408.84;5037763;28;20218;-67
2021/05/23 07:40:03;;;;;;;4.63;4.00;;;;;;;11.38;78.40;100408.53;5037895;28;20198;-67
2021/05/23 07:42:30;;;;;;;5.57;4.47;;;;;;;11.43;78.23;100407.25;5038913;28;20603;-67
2021/05/23 07:44:56;;;;;;;4.73;3.83;;;;;;;11.46;77.93;100416.88;5037029;28;20206;-67
2021/05/23 07:47:23;;;;;;;5.07;3.70;;;;;;;11.48;77.86;100422.91;5035624;28;20242;-68
2021/05/23 07:49:49;;;;;;;3.90;3.47;;;;;;;11.46;77.43;100424.84;5035238;28;20233;-67
2021/05/23 07:52:15;;;;;;;5.90;4.60;;;;;;;11.46;77.53;100424.84;5035471;28;20261;-68
2021/05/23 07:54:42;;;;;;;4.43;3.90;;;;;;;11.46;77.71;100425.69;5034299;28;21177;-67
2021/05/23 07:57:10;;;;;;;11.77;7.50;;;;;;;11.47;77.54;100430.06;5035721;28;21067;-67
2021/05/23 07:59:37;;;;;;;8.67;5.80;;;;;;;11.49;77.50;100436.13;5037409;28;20202;-68
2021/05/23 08:02:03;;;;;;;11.40;6.00;;;;;;;11.54;77.62;100429.63;5035473;28;20202;-68
2021/05/23 08:04:29;;;;;;;7.03;5.03;;;;;;;11.55;77.60;100440.19;5034186;28;20589;-66
2021/05/23 08:06:55;;;;;;;13.00;8.07;;;;;;;11.54;77.52;100443.81;5032743;28;20229;-67
2021/05/23 08:09:21;;;;;;;8.53;5.17;;;;;;;11.51;77.37;100446.69;5034441;28;20226;-68
2021/05/23 08:11:47;;;;;;;5.43;4.67;;;;;;;11.50;77.37;100445.00;5036644;28;20207;-69
2021/05/23 08:14:14;;;;;;;5.67;4.20;;;;;;;11.46;77.43;100451.53;5035289;28;20204;-68
2021/05/23 08:16:43;;;;;;;7.07;5.87;;;;;;;11.45;77.56;100453.34;5035524;28;20224;-68
2021/05/23 08:19:09;;;;;;;4.47;4.07;;;;;;;11.45;77.28;100461.34;5053930;22;20295;-66
2021/05/23 08:21:35;;;;;;;4.43;3.50;;;;;;;11.45;77.52;100466.69;5027198;28;20805;-66
2021/05/23 08:24:02;;;;;;;3.80;3.40;;;;;;;11.44;77.58;100472.09;5024990;28;20210;-68
2021/05/23 08:26:28;;;;;;;3.03;2.73;;;;;;;11.43;77.37;100475.75;5021059;28;20731;-68
2021/05/23 08:28:54;;;;;;;3.57;3.27;;;;;;;11.40;77.42;100481.28;5026816;28;20223;-69
2021/05/23 08:31:20;;;;;;;4.90;3.30;;;;;;;11.38;77.28;100485.84;5028330;28;20207;-67
2021/05/23 08:33:47;;;;;;;4.80;3.00;;;;;;;11.35;77.34;100476.25;5027047;28;20294;-67
2021/05/23 08:36:13;;;;;;;5.53;4.10;;;;;;;11.32;77.36;100483.59;5025788;28;20203;-68
2021/05/23 08:38:39;;;;;;;4.37;3.33;;;;;;;11.28;77.37;100483.00;5023880;28;20724;-68
2021/05/23 08:41:05;;;;;;;4.20;3.57;;;;;;;11.28;77.31;100484.81;5021704;28;20210;-69
2021/05/23 08:43:31;;;;;;;3.93;3.57;;;;;;;11.30;77.32;100480.19;5027103;28;20690;-68
2021/05/23 08:45:59;;;;;;;3.67;3.00;;;;;;;11.30;77.50;100494.38;5026169;28;20304;-69
2021/05/23 08:48:25;;;;;;;5.40;3.80;;;;;;;11.32;77.33;100496.94;5027701;28;20222;-68
2021/05/23 08:50:52;;;;;;;5.33;4.10;;;;;;;11.32;77.30;100496.94;5017270;28;20580;-67
2021/05/23 08:53:18;;;;;;;4.20;3.73;;;;;;;11.33;77.47;100491.50;5024208;28;20264;-68
2021/05/23 08:55:45;;;;;;;4.20;3.60;;;;;;;11.35;77.57;100502.91;5027436;28;20680;-68
2021/05/23 08:58:12;;;;;;;5.50;4.70;;;;;;;11.38;77.28;100501.84;5027753;28;20320;-68
2021/05/23 09:00:39;;;;;;;4.30;3.90;;;;;;;11.41;77.59;100506.97;5028569;28;20202;-68
2021/05/23 09:03:07;;;;;;;3.67;3.07;;;;;;;11.46;77.60;100499.53;5026334;28;20202;-68
2021/05/23 09:05:34;;;;;;;8.63;5.83;;;;;;;11.51;77.99;100497.38;5027187;28;20235;-67
2021/05/23 09:08:07;;;;;;;6.47;3.77;;;;;;;11.58;77.94;100495.16;5028555;28;20304;-67
2021/05/23 09:10:35;;;;;;;10.13;5.63;;;;;;;11.60;77.68;100502.09;5027953;28;20207;-68
2021/05/23 09:13:01;;;;;;;8.17;5.33;;;;;;;11.61;77.68;100508.28;5029046;28;20203;-68
2021/05/23 09:15:27;;;;;;;8.03;5.53;;;;;;;11.61;77.56;100511.78;5027126;28;20194;-68
2021/05/23 09:18:04;;;;;;;5.40;4.30;;;;;;;11.62;77.64;100508.16;5028714;28;20234;-69
2021/05/23 09:20:30;;;;;;;3.67;3.37;;;;;;;11.65;77.53;100507.06;5028283;28;20239;-68
2021/05/23 09:22:56;;;;;;;9.57;5.53;;;;;;;11.68;77.86;100521.06;5027177;28;20576;-68
2021/05/23 09:25:34;;;;;;;3.30;2.93;;;;;;;11.73;77.81;100518.06;5028665;28;20231;-68
2021/05/23 09:28:04;;;;;;;4.47;3.73;;;;;;;11.73;77.72;100510.94;5028706;28;20253;-68
2021/05/23 09:30:34;;;;;;;3.20;2.90;;;;;;;11.72;77.56;100522.56;5029458;28;20202;-67
2021/05/23 09:33:01;;;;;;;3.27;2.47;;;;;;;11.69;77.21;100519.25;5028530;28;20211;-68
2021/05/23 09:35:29;;;;;;;2.40;2.20;;;;;;;11.66;76.97;100522.13;5029511;28;20219;-68
2021/05/23 09:38:01;;;;;;;2.40;2.20;;;;;;;11.62;76.92;100532.19;5028706;28;20218;-68
2021/05/23 09:40:30;;;;;;;3.07;2.70;;;;;;;11.63;76.82;100528.53;5027785;28;20242;-67
2021/05/23 09:42:57;;;;;;;4.33;2.43;;;;;;;11.64;76.67;100530.25;5028515;28;20214;-68
2021/05/23 09:45:25;;;;;;;2.97;2.50;;;;;;;11.68;76.53;100539.72;5029861;28;20229;-66
2021/05/23 09:47:56;;;;;;;3.87;3.17;;;;;;;11.68;76.53;100545.06;5026564;28;20245;-68
2021/05/23 09:50:37;;;;;;;2.33;2.03;;;;;;;11.70;76.28;100535.16;5024964;28;20595;-67
2021/05/23 09:53:04;;;;;;;2.80;1.83;;;;;;;11.71;75.92;100557.34;5026167;28;20240;-68
2021/05/23 09:55:30;;;;;;;2.60;2.40;;;;;;;11.68;75.65;100552.22;5028569;28;20207;-66
2021/05/23 09:57:57;;;;;;;2.70;2.50;;;;;;;11.68;75.79;100558.41;5028285;28;20232;-66
2021/05/23 10:00:23;;;;;;;4.47;3.57;;;;;;;11.71;75.96;100560.88;5029066;28;20904;-67
2021/05/23 10:02:54;;;;;;;7.20;3.97;;;;;;;11.75;75.76;100554.34;5028867;28;20207;-66
2021/05/23 10:05:21;;;;;;;4.40;3.50;;;;;;;11.75;75.77;100562.38;5023200;28;20577;-66
2021/05/23 10:07:48;;;;;;;2.73;2.43;;;;;;;11.77;75.99;100567.63;5027534;28;20233;-68
2021/05/23 10:10:14;;;;;;;2.63;2.30;;;;;;;11.76;75.86;100572.13;5032123;28;20207;-68
2021/05/23 10:12:41;;;;;;;2.97;2.10;;;;;;;11.74;75.84;100576.66;5032235;28;20556;-68
2021/05/23 10:15:10;;;;;;;4.10;2.80;;;;;;;11.74;75.85;100573.16;5031645;28;20216;-69
2021/05/23 10:17:38;;;;;;;1.07;1.07;;;;;;;11.74;75.65;100579.34;5031862;28;20210;-68
2021/05/23 10:20:06;;;;;;;1.60;1.47;;;;;;;11.72;75.40;100586.59;5032193;28;20203;-69
2021/05/23 10:22:35;;;;;;;1.77;1.20;;;;;;;11.68;75.04;100574.41;5030096;28;20206;-68
2021/05/23 10:25:04;;;;;;;6.33;2.83;;;;;;;11.65;74.99;100582.63;5029764;28;20645;-67
2021/05/23 10:27:34;;;;;;;2.07;1.30;;;;;;;11.65;74.88;100582.63;5030026;28;20288;-67
2021/05/23 10:30:02;;;;;;;11.47;5.47;;;;;;;11.66;74.78;100597.66;5028934;28;20203;-67
2021/05/23 10:32:31;;;;;;;1.70;1.10;;;;;;;11.67;74.63;100594.03;5029576;28;20213;-67
2021/05/23 10:35:08;;;;;;;3.10;2.43;;;;;;;11.63;74.49;100603.25;5028919;28;20210;-68
2021/05/23 10:37:34;;;;;;;2.00;1.50;;;;;;;11.64;74.45;100606.75;5024989;28;20216;-65
2021/05/23 10:40:00;;;;;;;1.60;1.40;;;;;;;11.64;74.38;100604.94;5029660;28;20257;-67
2021/05/23 10:42:30;;;;;;;1.40;1.30;;;;;;;11.66;74.57;100605.66;5028258;28;20207;-66
2021/05/23 10:44:58;;;;;;;1.37;1.27;;;;;;;11.68;74.69;100609.09;5030232;28;20319;-66
2021/05/23 10:47:28;;;;;;;1.30;1.20;;;;;;;11.68;74.73;100606.44;5029320;28;20579;-68
2021/05/23 10:49:58;;;;;;;2.53;1.43;;;;;;;11.68;74.82;100609.09;5029359;28;20238;-67
2021/05/23 10:52:28;;;;;;;2.03;1.77;;;;;;;11.70;74.94;100607.19;5028342;28;20218;-66
2021/05/23 10:54:59;;;;;;;1.30;1.20;;;;;;;11.69;74.78;100605.47;5030833;28;20624;-66
2021/05/23 10:57:25;;;;;;;1.60;1.50;;;;;;;11.69;74.89;100616.13;5027828;28;20194;-67
2021/05/23 10:59:59;;;;;;;2.20;1.30;;;;;;;11.68;74.87;100610.91;5030658;28;20209;-67
2021/05/23 11:02:39;;;;;;;1.20;1.10;;;;;;;11.66;74.98;100608.34;5026618;28;20210;-66
2021/05/23 11:05:08;;;;;;;1.20;1.10;;;;;;;11.66;74.97;100604.81;5028713;28;20204;-67
2021/05/23 11:07:34;;;;;;;1.40;1.30;;;;;;;11.65;74.94;100611.97;5031033;28;20241;-67
2021/05/23 11:10:01;;;;;;;1.30;1.20;;;;;;;11.70;75.36;100609.84;5030845;28;20572;-66
2021/05/23 11:12:28;;;;;;;1.40;1.23;;;;;;;11.73;75.37;100612.31;5027272;28;20206;-66
2021/05/23 11:14:55;;;;;;;1.30;0.83;;;;;;;11.77;75.29;100616.50;5025774;28;20222;-66
2021/05/23 11:17:22;;;;;;;1.93;1.30;;;;;;;11.81;75.44;100627.84;5027568;28;20275;-66
2021/05/23 11:19:48;;;;;;;2.17;1.10;;;;;;;11.90;75.64;100626.34;5031154;28;20676;-66
2021/05/23 11:22:15;;;;;;;2.27;1.57;;;;;;;11.97;75.95;100630.28;5029547;28;20206;-66
2021/05/23 11:24:44;;;;;;;2.67;2.13;;;;;;;12.05;75.65;100631.47;5031275;28;20645;-66